Time;durP1;ratioP1;P1;durP2;ratioP2;P2;SDS_P1;SDS_P2;PMS_P1;PMS_P2;Temp;Humidity;BMP_temperature;BMP_pressure;BME280_temperature;BME280_humidity;BME280_pressure;Samples;Min_cycle;Max_cycle;Signal;HPM_P1;HPM_P2
2023/08/27 00:00:29;;;;;;;118.68;113.53;;;;;;;23.69;44.59;100882.09;5039343;28;20052;-72
2023/08/27 00:02:54;;;;;;;115.95;110.95;;;;;;;23.69;44.87;100884.06;5044509;28;20033;-73
2023/08/27 00:05:20;;;;;;;115.95;111.05;;;;;;;23.67;44.70;100878.84;5042782;28;20085;-72
2023/08/27 00:07:45;;;;;;;114.28;109.35;;;;;;;23.66;44.31;100873.66;5037633;28;20399;-73
2023/08/27 00:10:11;;;;;;;114.40;109.50;;;;;;;23.65;44.74;100858.25;5042594;28;20041;-73
2023/08/27 00:12:36;;;;;;;113.32;108.35;;;;;;;23.63;44.75;100849.50;5037865;28;20056;-72
2023/08/27 00:15:03;;;;;;;116.22;111.13;;;;;;;23.61;44.25;100841.56;5039557;28;20037;-74
2023/08/27 00:17:29;;;;;;;113.70;108.80;;;;;;;23.60;44.53;100833.63;5039263;28;20532;-73
2023/08/27 00:19:54;;;;;;;115.43;110.43;;;;;;;23.58;44.36;100828.41;5039048;28;20037;-73
2023/08/27 00:22:20;;;;;;;114.82;109.90;;;;;;;23.55;44.52;100838.16;5038560;28;20095;-71
2023/08/27 00:24:45;;;;;;;116.47;111.43;;;;;;;23.54;44.49;100844.03;5042563;28;20040;-74
2023/08/27 00:27:10;;;;;;;116.88;111.90;;;;;;;23.52;44.89;100846.28;5048508;28;20052;-74
2023/08/27 00:29:36;;;;;;;115.43;110.50;;;;;;;23.50;44.35;100843.03;5043581;28;20458;-71
2023/08/27 00:32:01;;;;;;;114.55;109.65;;;;;;;23.49;44.89;100835.91;5040389;28;20621;-72
2023/08/27 00:34:34;;;;;;;112.80;107.93;;;;;;;23.45;44.47;100830.25;5043595;28;20033;-71
2023/08/27 00:37:00;;;;;;;116.68;111.18;;;;;;;23.45;44.58;100823.91;5036694;28;20041;-72
2023/08/27 00:39:26;;;;;;;114.63;109.40;;;;;;;23.43;44.49;100821.47;5039176;28;20398;-73
2023/08/27 00:41:52;;;;;;;115.00;110.00;;;;;;;23.42;44.35;100821.81;5042195;28;20040;-72
2023/08/27 00:44:17;;;;;;;112.47;107.68;;;;;;;23.40;44.76;100816.63;5043957;28;20476;-73
2023/08/27 00:46:43;;;;;;;121.78;116.57;;;;;;;23.40;44.84;100826.84;5049071;28;20490;-73
2023/08/27 00:49:09;;;;;;;116.32;111.10;;;;;;;23.38;44.74;100812.59;5044385;28;20051;-73
2023/08/27 00:51:35;;;;;;;115.28;110.38;;;;;;;23.37;44.71;100808.22;5039561;28;20473;-72
2023/08/27 00:54:01;;;;;;;113.32;108.43;;;;;;;23.36;44.64;100801.06;5046556;28;20086;-72
2023/08/27 00:56:26;;;;;;;111.13;106.38;;;;;;;23.35;44.46;100799.47;5045704;28;20029;-72
2023/08/27 00:58:52;;;;;;;117.00;111.90;;;;;;;23.33;44.40;100795.09;5048093;28;20029;-72
2023/08/27 01:01:20;;;;;;;115.07;109.88;;;;;;;23.30;44.78;100797.69;5043817;28;20033;-73
2023/08/27 01:03:46;;;;;;;;;;;;;;;23.25;44.65;100803.38;5042607;28;20334;-72
2023/08/27 01:06:12;;;;;;;110.03;105.30;;;;;;;23.25;44.77;100795.09;5042056;28;19917;-72
2023/08/27 01:08:59;;;;;;;108.90;104.20;;;;;;;23.24;44.51;100793.50;5040393;28;20044;-72
2023/08/27 01:11:40;;;;;;;113.65;108.80;;;;;;;23.21;44.32;100789.44;5035527;28;20044;-72
2023/08/27 01:14:09;;;;;;;110.10;105.30;;;;;;;23.21;44.21;100791.38;5041881;28;20044;-72
2023/08/27 01:16:36;;;;;;;111.80;106.90;;;;;;;23.18;44.79;100790.06;5049033;28;20033;-72
2023/08/27 01:19:13;;;;;;;112.47;107.55;;;;;;;23.19;44.53;100790.91;5041312;28;20033;-73
2023/08/27 01:21:39;;;;;;;112.53;107.70;;;;;;;23.17;44.28;100793.97;5039660;28;20032;-74
2023/08/27 01:24:05;;;;;;;113.50;108.50;;;;;;;23.17;44.63;100793.97;5041634;28;20068;-74
2023/08/27 01:27:03;;;;;;;111.05;106.35;;;;;;;23.12;44.31;100788.63;5041818;28;20120;-74
2023/08/27 01:29:39;;;;;;;111.97;107.18;;;;;;;23.13;44.74;100778.41;5051341;28;20052;-75
2023/08/27 01:32:14;;;;;;;110.05;105.25;;;;;;;23.12;44.62;100783.13;5049723;28;20033;-73
2023/08/27 01:34:41;;;;;;;108.80;104.10;;;;;;;23.10;44.21;100779.88;5040258;28;20136;-75
2023/08/27 01:37:10;;;;;;;107.75;103.13;;;;;;;23.10;44.64;100774.38;5047000;28;20380;-73
2023/08/27 01:39:36;;;;;;;107.60;102.97;;;;;;;23.08;44.30;100776.63;5040128;28;20040;-72
2023/08/27 01:42:01;;;;;;;111.93;107.13;;;;;;;23.07;44.68;100777.78;5043775;28;20032;-73
2023/08/27 01:44:26;;;;;;;110.07;105.30;;;;;;;23.05;44.61;100780.84;5042607;28;20047;-74
2023/08/27 01:46:52;;;;;;;107.63;102.88;;;;;;;23.04;44.15;100782.00;5044212;28;20041;-72
2023/08/27 01:49:18;;;;;;;107.60;102.80;;;;;;;23.03;44.70;100785.91;5042981;28;20527;-73
2023/08/27 01:51:43;;;;;;;111.35;106.50;;;;;;;23.02;44.25;100775.19;5044556;28;20033;-72
2023/08/27 01:54:08;;;;;;;108.88;104.20;;;;;;;23.02;44.26;100775.19;5043649;28;20250;-73
2023/08/27 01:56:34;;;;;;;109.72;105.03;;;;;;;22.99;44.17;100771.16;5040694;28;20055;-74
2023/08/27 01:58:59;;;;;;;112.03;107.03;;;;;;;22.99;44.30;100778.63;5042535;28;20041;-73
2023/08/27 02:01:24;;;;;;;110.45;105.65;;;;;;;22.98;44.35;100779.72;5047661;28;20045;-73
2023/08/27 02:03:50;;;;;;;108.93;104.25;;;;;;;22.96;44.48;100774.53;5047104;28;20136;-74
2023/08/27 02:06:15;;;;;;;106.78;102.20;;;;;;;22.94;44.61;100765.78;5047162;28;20108;-73
2023/08/27 02:08:41;;;;;;;108.25;103.55;;;;;;;22.94;44.42;100768.53;5045473;28;20040;-73
2023/08/27 02:11:06;;;;;;;107.10;102.50;;;;;;;22.93;44.37;100760.59;5040406;28;20389;-73
2023/08/27 02:13:32;;;;;;;108.60;103.93;;;;;;;22.91;44.18;100766.44;5044152;28;20043;-74
2023/08/27 02:15:57;;;;;;;110.50;105.75;;;;;;;22.90;44.37;100768.34;5043207;28;20045;-73
2023/08/27 02:18:22;;;;;;;107.82;103.18;;;;;;;22.89;44.12;100771.44;5044292;28;20036;-75
2023/08/27 02:20:48;;;;;;;108.38;103.68;;;;;;;22.87;44.53;100765.47;5047154;28;20037;-74
2023/08/27 02:23:13;;;;;;;106.55;101.95;;;;;;;22.86;44.32;100774.88;5044729;28;20037;-73
2023/08/27 02:25:38;;;;;;;105.70;101.13;;;;;;;22.84;44.22;100764.16;5031033;28;20119;-73
2023/08/27 02:28:04;;;;;;;107.82;103.03;;;;;;;22.84;44.35;100768.88;5041016;28;20055;-73
2023/08/27 02:30:30;;;;;;;107.97;103.32;;;;;;;22.82;44.32;100766.44;5047571;28;20166;-71
2023/08/27 02:32:55;;;;;;;106.47;101.90;;;;;;;22.81;44.65;100767.56;5046682;28;20037;-74
2023/08/27 02:35:20;;;;;;;105.78;101.22;;;;;;;22.79;44.17;100771.78;5040451;28;20034;-72
2023/08/27 02:37:46;;;;;;;106.80;102.10;;;;;;;22.79;44.40;100769.03;5036469;28;20108;-71
2023/08/27 02:40:13;;;;;;;107.70;103.00;;;;;;;22.77;44.69;100763.84;5040044;28;20230;-72
2023/08/27 02:42:39;;;;;;;105.97;101.43;;;;;;;22.76;44.39;100764.97;5039203;28;20029;-73
2023/08/27 02:45:05;;;;;;;110.78;105.55;;;;;;;22.76;44.20;100769.69;5039308;28;20048;-72
2023/08/27 02:47:30;;;;;;;106.10;101.55;;;;;;;22.75;44.26;100762.53;5047552;28;20048;-72
2023/08/27 02:49:56;;;;;;;103.70;99.18;;;;;;;22.74;44.13;100766.44;5043517;28;20041;-73
2023/08/27 02:52:21;;;;;;;104.22;99.75;;;;;;;22.73;44.66;100762.88;5046089;28;20032;-73
2023/08/27 02:54:47;;;;;;;103.47;99.00;;;;;;;22.71;44.38;100767.91;5043472;28;20036;-74
2023/08/27 02:57:12;;;;;;;108.00;103.30;;;;;;;22.71;44.17;100781.66;5039598;28;20393;-73
2023/08/27 02:59:37;;;;;;;106.45;101.75;;;;;;;22.70;44.61;100769.00;5020899;28;20037;-73
2023/08/27 03:02:03;;;;;;;107.40;102.57;;;;;;;22.69;44.40;100772.91;5041963;28;20190;-73
2023/08/27 03:04:28;;;;;;;106.38;101.68;;;;;;;22.68;44.51;100774.06;5045049;28;20043;-73
2023/08/27 03:06:54;;;;;;;105.70;101.13;;;;;;;22.67;44.51;100766.91;5044575;28;20083;-74
2023/08/27 03:09:19;;;;;;;109.93;105.13;;;;;;;22.66;44.66;100768.06;5025948;28;20049;-72
2023/08/27 03:11:45;;;;;;;103.85;99.35;;;;;;;22.65;44.48;100766.44;5041171;28;20183;-73
2023/08/27 03:14:10;;;;;;;106.43;101.78;;;;;;;22.64;44.79;100762.06;5042338;28;20083;-73
2023/08/27 03:16:36;;;;;;;106.75;102.05;;;;;;;22.62;44.77;100765.13;5037824;28;20461;-73
2023/08/27 03:19:02;;;;;;;105.00;100.47;;;;;;;22.62;44.57;100761.56;5042031;28;20064;-73
2023/08/27 03:21:27;;;;;;;106.13;101.43;;;;;;;22.60;44.34;100761.91;5038771;28;20465;-73
2023/08/27 03:23:53;;;;;;;105.63;101.03;;;;;;;22.59;44.47;100771.28;5041587;28;20410;-73
2023/08/27 03:26:18;;;;;;;103.03;98.53;;;;;;;22.58;44.50;100768.84;5043213;28;20032;-73
2023/08/27 03:28:44;;;;;;;105.50;100.90;;;;;;;22.57;44.81;100770.00;5039845;28;20405;-73
2023/08/27 03:31:09;;;;;;;104.53;100.00;;;;;;;22.56;44.44;100752.66;5047440;28;20045;-72
2023/08/27 03:33:35;;;;;;;103.82;99.32;;;;;;;22.56;44.82;100754.63;5036822;28;20029;-72
2023/08/27 03:36:01;;;;;;;102.93;98.53;;;;;;;22.54;44.58;100754.13;5040251;28;20095;-73
2023/08/27 03:38:26;;;;;;;102.25;97.65;;;;;;;22.53;44.90;100753.31;5040053;28;20037;-73
2023/08/27 03:40:52;;;;;;;105.38;100.78;;;;;;;22.53;44.83;100744.22;5042368;28;20164;-73
2023/08/27 03:43:18;;;;;;;103.82;99.22;;;;;;;22.51;44.46;100741.03;5050524;28;20040;-73
2023/08/27 03:45:44;;;;;;;101.03;96.63;;;;;;;22.50;44.91;100737.44;5043310;28;20037;-73
2023/08/27 03:48:10;;;;;;;105.90;101.30;;;;;;;22.47;44.68;100741.63;5039296;28;20892;-73
2023/08/27 03:50:36;;;;;;;103.20;98.75;;;;;;;22.47;44.73;100741.63;5042832;28;20103;-73
2023/08/27 03:53:05;;;;;;;103.70;98.85;;;;;;;22.46;44.48;100747.50;5043533;28;20045;-73
2023/08/27 03:55:36;;;;;;;102.90;98.47;;;;;;;22.46;44.59;100750.25;5055397;28;20091;-73
2023/08/27 03:58:02;;;;;;;106.57;101.65;;;;;;;22.43;44.89;100737.94;5038867;28;20116;-74
2023/08/27 04:00:27;;;;;;;102.53;97.93;;;;;;;22.42;44.61;100741.81;5037802;28;20441;-73
2023/08/27 04:02:53;;;;;;;102.07;97.63;;;;;;;22.42;44.80;100746.50;5041382;28;20493;-74
2023/08/27 04:05:18;;;;;;;101.97;97.47;;;;;;;22.41;44.76;100742.94;5044756;28;20036;-74
2023/08/27 04:07:43;;;;;;;102.68;98.22;;;;;;;22.40;44.64;100743.25;5043560;28;20037;-75
2023/08/27 04:10:09;;;;;;;102.18;97.72;;;;;;;22.39;44.83;100744.41;5040146;28;20041;-73
2023/08/27 04:12:34;;;;;;;100.70;96.38;;;;;;;22.38;44.84;100746.34;5038479;28;20044;-73
2023/08/27 04:15:00;;;;;;;101.07;96.68;;;;;;;22.38;44.62;100745.53;5035690;28;20488;-75
2023/08/27 04:17:25;;;;;;;102.85;98.40;;;;;;;22.36;44.71;100734.84;5041021;28;20215;-75
2023/08/27 04:19:55;;;;;;;103.05;98.55;;;;;;;22.36;44.51;100740.34;5041610;28;20041;-74
2023/08/27 04:22:21;;;;;;;104.22;99.53;;;;;;;22.35;44.54;100740.66;5043840;28;20106;-75
2023/08/27 04:24:46;;;;;;;101.65;97.18;;;;;;;22.34;44.73;100745.38;5043059;28;20480;-74
2023/08/27 04:27:12;;;;;;;102.38;97.72;;;;;;;22.33;45.11;100751.19;5042801;28;20463;-73
2023/08/27 04:29:37;;;;;;;106.40;101.78;;;;;;;22.32;45.05;100750.38;5040635;28;20037;-73
2023/08/27 04:32:03;;;;;;;100.97;96.60;;;;;;;22.31;44.50;100761.72;5042770;28;20042;-73
2023/08/27 04:34:29;;;;;;;105.38;100.68;;;;;;;22.30;44.58;100755.41;5036341;28;20025;-73
2023/08/27 04:36:56;;;;;;;100.95;96.57;;;;;;;22.30;44.67;100765.59;5045636;28;20044;-74
2023/08/27 04:39:22;;;;;;;103.18;98.68;;;;;;;22.28;44.95;100752.16;5026978;28;20460;-74
2023/08/27 04:41:48;;;;;;;101.75;97.35;;;;;;;22.28;45.07;100760.41;5046425;28;20029;-74
2023/08/27 04:44:13;;;;;;;102.63;98.05;;;;;;;22.27;44.65;100755.22;5043230;28;20083;-75
2023/08/27 04:46:39;;;;;;;99.65;95.35;;;;;;;22.25;44.60;100759.13;5044971;28;20393;-74
2023/08/27 04:49:04;;;;;;;100.13;95.72;;;;;;;22.24;44.73;100768.50;5043143;28;20075;-74
2023/08/27 04:51:29;;;;;;;102.20;97.68;;;;;;;22.24;45.18;100764.94;5045713;28;20452;-74
2023/08/27 04:53:55;;;;;;;99.28;94.88;;;;;;;22.23;44.78;100764.13;5046998;28;20037;-74
2023/08/27 04:56:21;;;;;;;103.25;98.55;;;;;;;22.22;44.81;100764.44;5045936;28;20091;-75
2023/08/27 04:58:46;;;;;;;101.85;97.35;;;;;;;22.21;44.71;100769.13;5039256;28;20647;-72
2023/08/27 05:01:12;;;;;;;102.18;97.70;;;;;;;22.20;45.14;100769.44;5047809;28;20040;-72
2023/08/27 05:03:37;;;;;;;103.05;98.55;;;;;;;22.19;45.06;100762.31;5046329;28;20029;-72
2023/08/27 05:06:02;;;;;;;100.78;96.18;;;;;;;22.17;45.08;100765.38;5051858;28;20071;-72
2023/08/27 05:08:28;;;;;;;99.82;95.45;;;;;;;22.17;44.76;100759.06;5044983;28;20514;-72
2023/08/27 05:10:53;;;;;;;100.82;96.43;;;;;;;22.14;44.75;100757.75;5048206;28;20040;-72
2023/08/27 05:13:19;;;;;;;99.40;95.00;;;;;;;22.14;45.04;100760.50;5046705;28;20473;-72
2023/08/27 05:15:45;;;;;;;99.75;95.45;;;;;;;22.13;45.19;100769.09;5046225;28;20119;-74
2023/08/27 05:18:10;;;;;;;98.65;94.38;;;;;;;22.13;45.21;100771.84;5041979;28;20388;-72
2023/08/27 05:20:37;;;;;;;99.60;95.30;;;;;;;22.13;44.88;100785.59;5043601;28;20507;-71
2023/08/27 05:23:03;;;;;;;99.60;95.15;;;;;;;22.12;45.25;100783.97;5044632;28;20037;-71
2023/08/27 05:25:28;;;;;;;100.50;95.95;;;;;;;22.10;45.23;100781.56;5044065;28;20442;-74
2023/08/27 05:27:54;;;;;;;99.85;95.55;;;;;;;22.09;44.92;100785.41;5038477;28;20045;-73
2023/08/27 05:30:19;;;;;;;101.47;96.97;;;;;;;22.09;45.23;100781.84;5044877;28;20095;-75
2023/08/27 05:32:44;;;;;;;99.72;95.38;;;;;;;22.08;44.70;100772.00;5051568;28;20087;-73
2023/08/27 05:35:10;;;;;;;97.78;93.38;;;;;;;22.07;44.79;100778.63;5043561;28;20386;-73
2023/08/27 05:37:36;;;;;;;99.10;94.80;;;;;;;22.07;44.84;100775.88;5041688;28;20067;-75
2023/08/27 05:40:06;;;;;;;101.57;97.18;;;;;;;22.06;44.83;100766.00;5043243;28;20036;-73
2023/08/27 05:42:32;;;;;;;99.68;95.32;;;;;;;22.04;45.21;100769.06;5044447;28;20033;-74
2023/08/27 05:44:58;;;;;;;100.53;96.15;;;;;;;22.03;44.81;100773.75;5050359;28;20040;-72
2023/08/27 05:47:24;;;;;;;100.00;95.55;;;;;;;22.03;44.98;100767.44;5045297;28;20029;-72
2023/08/27 05:49:49;;;;;;;101.63;97.15;;;;;;;22.01;44.89;100770.50;5043012;28;20029;-72
2023/08/27 05:52:14;;;;;;;99.32;95.00;;;;;;;22.00;44.68;100774.41;5040557;28;20033;-73
2023/08/27 05:54:40;;;;;;;97.35;93.13;;;;;;;22.01;44.91;100770.50;5042304;28;20475;-75
2023/08/27 05:57:05;;;;;;;98.82;94.53;;;;;;;21.99;44.99;100772.75;5040767;28;20033;-72
2023/08/27 05:59:30;;;;;;;100.00;95.65;;;;;;;21.98;44.93;100773.09;5042663;28;20079;-73
2023/08/27 06:01:57;;;;;;;102.35;97.85;;;;;;;21.98;44.91;100773.09;5040637;28;20033;-73
2023/08/27 06:04:22;;;;;;;101.20;96.70;;;;;;;21.98;45.30;100764.84;5040057;28;20032;-73
2023/08/27 06:06:47;;;;;;;98.30;94.03;;;;;;;21.97;45.21;100752.22;5042460;28;20029;-74
2023/08/27 06:09:13;;;;;;;98.20;93.90;;;;;;;21.96;44.88;100753.34;5038898;28;20037;-73
2023/08/27 06:11:38;;;;;;;99.18;94.78;;;;;;;21.95;45.28;100755.28;5040665;28;20065;-73
2023/08/27 06:14:03;;;;;;;99.30;94.80;;;;;;;21.94;45.28;100744.59;5038730;28;20037;-74
2023/08/27 06:16:29;;;;;;;97.90;93.57;;;;;;;21.95;45.34;100749.00;5041752;28;20065;-76
2023/08/27 06:18:55;;;;;;;100.63;96.22;;;;;;;21.94;44.83;100744.59;5036453;28;20123;-74
2023/08/27 06:21:20;;;;;;;98.20;93.70;;;;;;;21.94;45.03;100739.09;5045854;28;20029;-74
2023/08/27 06:23:46;;;;;;;98.05;93.75;;;;;;;21.94;45.04;100741.84;5040293;28;20124;-74
2023/08/27 06:26:13;;;;;;;96.88;92.63;;;;;;;21.92;44.94;100747.66;5045655;28;20033;-74
2023/08/27 06:28:38;;;;;;;95.60;91.43;;;;;;;21.92;45.39;100739.41;5035109;28;20046;-75
2023/08/27 06:31:03;;;;;;;96.32;92.10;;;;;;;21.92;44.96;100746.84;5042631;28;20049;-73
2023/08/27 06:33:29;;;;;;;99.07;94.68;;;;;;;21.91;45.03;100735.06;5037350;28;20045;-74
2023/08/27 06:35:54;;;;;;;98.38;93.97;;;;;;;21.91;45.30;100737.00;5040556;28;20038;-74
2023/08/27 06:38:20;;;;;;;98.20;93.95;;;;;;;21.91;44.90;100726.81;5041689;28;20047;-73
2023/08/27 06:40:45;;;;;;;97.57;93.18;;;;;;;21.91;45.20;100737.00;5035680;28;20039;-73
2023/08/27 06:43:11;;;;;;;99.90;95.40;;;;;;;21.90;44.97;100738.94;5044315;28;20035;-73
2023/08/27 06:45:36;;;;;;;98.97;94.43;;;;;;;21.90;45.28;100738.94;5041435;28;20779;-72
2023/08/27 06:48:02;;;;;;;100.13;95.72;;;;;;;21.91;44.90;100748.00;5045785;28;20032;-72
2023/08/27 06:50:27;;;;;;;98.28;93.88;;;;;;;21.91;45.06;100739.75;5041237;28;20029;-73
2023/08/27 06:52:52;;;;;;;98.68;94.38;;;;;;;21.91;45.18;100735.06;5044563;28;20087;-73
2023/08/27 06:55:18;;;;;;;96.75;92.53;;;;;;;21.89;45.49;100737.31;5040775;28;20072;-73
2023/08/27 06:57:43;;;;;;;95.70;91.10;;;;;;;21.89;45.06;100742.81;5042616;28;20072;-72
2023/08/27 07:00:11;;;;;;;96.93;92.63;;;;;;;21.90;45.05;100736.19;5039901;28;20037;-72
2023/08/27 07:02:37;;;;;;;97.35;92.95;;;;;;;21.90;45.54;100740.84;5023064;28;20358;-72
2023/08/27 07:05:08;;;;;;;96.80;92.40;;;;;;;21.90;45.10;100741.69;5035304;28;20099;-73
2023/08/27 07:07:37;;;;;;;96.18;91.97;;;;;;;21.90;45.31;100741.69;5048140;28;20500;-72
2023/08/27 07:10:04;;;;;;;95.38;91.20;;;;;;;21.90;45.17;100743.59;5044135;28;20044;-72
2023/08/27 07:12:29;;;;;;;96.68;92.35;;;;;;;21.89;45.47;100742.00;5042183;28;20124;-72
2023/08/27 07:14:55;;;;;;;95.60;91.30;;;;;;;21.89;45.37;100750.25;5045554;28;20108;-72
2023/08/27 07:17:20;;;;;;;97.15;92.85;;;;;;;21.87;45.62;100745.06;5048582;28;20447;-73
2023/08/27 07:19:45;;;;;;;95.80;91.53;;;;;;;21.87;45.50;100749.75;5037935;28;20064;-72
2023/08/27 07:22:11;;;;;;;97.28;92.68;;;;;;;21.86;45.35;100751.69;5043495;28;20104;-73
2023/08/27 07:24:36;;;;;;;96.32;91.82;;;;;;;21.87;45.68;100749.75;5044174;28;20033;-72
2023/08/27 07:27:02;;;;;;;98.22;93.63;;;;;;;21.88;45.57;100757.69;5038287;28;20029;-72
2023/08/27 07:29:28;;;;;;;97.72;93.22;;;;;;;21.89;45.79;100751.06;5040925;28;20596;-72
2023/08/27 07:31:54;;;;;;;96.65;92.43;;;;;;;21.90;45.83;100749.09;5038971;28;20065;-73
2023/08/27 07:34:20;;;;;;;95.68;91.38;;;;;;;21.90;45.55;100749.09;5024701;28;20047;-72
2023/08/27 07:36:45;;;;;;;94.88;90.68;;;;;;;21.91;46.04;100759.00;5039544;28;20057;-73
2023/08/27 07:39:10;;;;;;;93.07;88.95;;;;;;;21.92;46.01;100755.09;5046918;28;20124;-74
2023/08/27 07:41:36;;;;;;;96.57;92.25;;;;;;;21.93;45.86;100751.25;5046116;28;20470;-73
2023/08/27 07:44:01;;;;;;;96.10;91.88;;;;;;;21.95;45.97;100751.75;5040876;28;20028;-73
2023/08/27 07:46:27;;;;;;;96.85;92.47;;;;;;;21.95;46.38;100754.50;5044015;28;20485;-73
2023/08/27 07:48:52;;;;;;;97.55;92.90;;;;;;;21.98;45.87;100751.09;5042905;28;20041;-72
2023/08/27 07:51:17;;;;;;;97.88;93.57;;;;;;;21.99;46.32;100745.25;5040910;28;20039;-72
2023/08/27 07:53:43;;;;;;;98.35;93.93;;;;;;;22.03;46.23;100756.44;5044716;28;20032;-73
2023/08/27 07:56:09;;;;;;;98.43;93.93;;;;;;;22.05;46.31;100745.94;5048217;28;20033;-73
2023/08/27 07:58:34;;;;;;;98.00;93.60;;;;;;;22.09;46.22;100740.59;5049575;28;20370;-74
2023/08/27 08:01:02;;;;;;;98.57;94.25;;;;;;;22.12;46.08;100750.94;5047279;28;20043;-72
2023/08/27 08:03:27;;;;;;;95.65;91.45;;;;;;;22.16;46.21;100741.75;5046287;28;20042;-73
2023/08/27 08:05:53;;;;;;;96.72;92.50;;;;;;;22.19;46.23;100734.78;5044495;28;20033;-74
2023/08/27 08:08:18;;;;;;;98.40;93.80;;;;;;;22.22;46.42;100742.44;5050573;28;20535;-73
2023/08/27 08:10:44;;;;;;;97.35;92.47;;;;;;;22.24;46.44;100738.22;5043639;28;20041;-73
2023/08/27 08:13:09;;;;;;;98.13;93.82;;;;;;;22.28;46.54;100735.66;5047290;28;20037;-75
2023/08/27 08:15:34;;;;;;;100.03;95.43;;;;;;;22.31;46.74;100739.69;5038527;28;20056;-76
2023/08/27 08:18:00;;;;;;;96.82;92.60;;;;;;;22.34;46.58;100734.34;5051571;28;20041;-75
2023/08/27 08:20:25;;;;;;;100.53;96.03;;;;;;;22.37;46.40;100735.66;5051110;28;20025;-74
2023/08/27 08:22:51;;;;;;;97.60;93.22;;;;;;;22.40;46.74;100746.00;5050288;28;20037;-74
2023/08/27 08:25:16;;;;;;;100.20;95.80;;;;;;;22.43;46.53;100740.69;5039517;28;20425;-73
2023/08/27 08:27:41;;;;;;;101.57;96.97;;;;;;;22.47;46.77;100751.84;5042654;28;20061;-74
2023/08/27 08:30:07;;;;;;;102.28;97.68;;;;;;;22.50;46.79;100748.44;5035524;28;20033;-75
2023/08/27 08:32:32;;;;;;;99.28;94.78;;;;;;;22.54;46.80;100752.19;5049916;28;20400;-75
2023/08/27 08:34:58;;;;;;;100.15;95.55;;;;;;;22.58;46.70;100749.56;5052469;28;20603;-73
2023/08/27 08:37:25;;;;;;;104.22;99.72;;;;;;;22.62;46.43;100742.31;5046978;28;20038;-73
2023/08/27 08:39:51;;;;;;;101.22;96.75;;;;;;;22.65;46.47;100744.41;5043532;28;20124;-72
2023/08/27 08:42:34;;;;;;;101.03;96.57;;;;;;;22.66;46.80;100752.34;5047129;28;20108;-72
2023/08/27 08:45:24;;;;;;;103.28;98.72;;;;;;;22.71;46.94;100756.88;5058283;28;20028;-73
2023/08/27 08:47:52;;;;;;;102.82;98.32;;;;;;;22.72;47.06;100764.00;5045724;28;20059;-73
2023/08/27 08:50:19;;;;;;;102.25;97.75;;;;;;;22.74;47.18;100761.75;5046195;28;20034;-73
2023/08/27 08:52:46;;;;;;;103.97;99.32;;;;;;;22.78;46.70;100761.88;5035924;28;20045;-73
2023/08/27 08:55:14;;;;;;;103.95;99.35;;;;;;;22.80;47.03;100757.69;5049422;28;20401;-73
2023/08/27 08:57:45;;;;;;;;;;;;;;;22.78;47.30;100757.22;5046187;28;20029;-73
2023/08/27 09:00:12;;;;;;;100.57;96.18;;;;;;;22.85;47.05;100748.44;5051918;28;20011;-71
2023/08/27 09:02:38;;;;;;;102.05;97.35;;;;;;;22.87;47.00;100744.22;5041287;28;20029;-73
2023/08/27 09:05:06;;;;;;;101.18;96.75;;;;;;;22.93;46.89;100746.81;5041998;28;20037;-73
2023/08/27 09:07:33;;;;;;;101.05;96.70;;;;;;;22.96;46.74;100744.22;5051401;28;20124;-73
2023/08/27 09:10:00;;;;;;;102.22;97.72;;;;;;;23.00;47.15;100734.19;5052835;28;20032;-73
2023/08/27 09:12:26;;;;;;;103.95;99.38;;;;;;;23.05;47.10;100730.47;5047453;28;20504;-72
2023/08/27 09:14:52;;;;;;;104.95;100.25;;;;;;;23.08;47.54;100727.03;5051544;28;20037;-72
2023/08/27 09:17:19;;;;;;;105.38;100.80;;;;;;;23.12;47.02;100719.75;5044656;28;20045;-73
2023/08/27 09:19:46;;;;;;;104.00;99.25;;;;;;;23.17;46.74;100724.28;5041604;28;20037;-72
2023/08/27 09:22:14;;;;;;;106.60;101.80;;;;;;;23.20;46.99;100729.13;5044562;28;20373;-72
2023/08/27 09:24:40;;;;;;;106.43;101.45;;;;;;;23.23;46.84;100726.53;5047870;28;20551;-72
2023/08/27 09:27:05;;;;;;;109.25;104.35;;;;;;;23.27;46.81;100727.50;5045989;28;20037;-73
2023/08/27 09:29:33;;;;;;;105.97;101.43;;;;;;;23.28;47.14;100718.09;5041509;28;20406;-72
2023/08/27 09:31:58;;;;;;;104.93;100.40;;;;;;;23.34;47.11;100715.97;5034558;28;20052;-72
2023/08/27 09:34:24;;;;;;;106.93;102.22;;;;;;;23.38;46.86;100716.09;5036799;28;20021;-73
2023/08/27 09:36:49;;;;;;;108.03;103.15;;;;;;;23.40;47.00;100711.88;5046521;28;20544;-71
2023/08/27 09:39:15;;;;;;;107.25;102.55;;;;;;;23.43;47.06;100713.97;5049370;28;20078;-71
2023/08/27 09:41:42;;;;;;;103.25;98.65;;;;;;;23.45;47.30;100713.66;5050235;28;20037;-72
2023/08/27 09:44:09;;;;;;;103.65;98.95;;;;;;;23.48;47.17;100702.75;5044511;28;20038;-71
2023/08/27 09:46:35;;;;;;;106.03;101.32;;;;;;;23.52;47.33;100702.91;5039331;28;20458;-71
2023/08/27 09:49:06;;;;;;;105.72;101.05;;;;;;;23.54;46.82;100698.69;5042281;28;20029;-71
2023/08/27 09:51:33;;;;;;;104.93;100.13;;;;;;;23.58;47.05;100700.78;5047016;28;20033;-70
2023/08/27 09:53:59;;;;;;;102.95;98.45;;;;;;;23.61;46.76;100709.22;5039654;28;20036;-71
2023/08/27 09:56:25;;;;;;;104.45;99.82;;;;;;;23.63;46.81;100706.13;5045758;28;20417;-72
2023/08/27 09:58:54;;;;;;;103.93;99.13;;;;;;;23.66;47.04;100700.75;5043155;28;20026;-72
2023/08/27 10:01:23;;;;;;;107.28;102.57;;;;;;;23.69;46.87;100697.31;5046149;28;20051;-71
2023/08/27 10:03:49;;;;;;;106.30;101.25;;;;;;;23.72;47.28;100698.63;5046255;28;20111;-72
2023/08/27 10:06:14;;;;;;;106.68;102.07;;;;;;;23.74;46.94;100699.94;5042258;28;20112;-72
2023/08/27 10:08:54;;;;;;;109.70;104.53;;;;;;;23.75;46.86;100690.50;5043184;28;20381;-74
2023/08/27 10:11:22;;;;;;;106.10;101.30;;;;;;;23.80;46.90;100696.97;5043835;28;20069;-73
2023/08/27 10:13:48;;;;;;;106.55;101.82;;;;;;;23.82;46.66;100697.47;5043218;28;20037;-73
2023/08/27 10:16:14;;;;;;;106.35;101.80;;;;;;;23.84;46.66;100700.66;5044882;28;20041;-72
2023/08/27 10:18:41;;;;;;;111.93;107.13;;;;;;;23.87;46.74;100708.31;5046934;28;20190;-74
2023/08/27 10:21:08;;;;;;;107.00;102.40;;;;;;;23.89;47.17;100704.06;5039498;28;20048;-71
2023/08/27 10:23:37;;;;;;;109.93;105.00;;;;;;;23.92;47.09;100706.16;5034213;28;20057;-72
2023/08/27 10:26:03;;;;;;;107.80;103.07;;;;;;;23.95;46.70;100699.16;5033725;28;20397;-73
2023/08/27 10:28:29;;;;;;;107.85;103.22;;;;;;;23.97;46.55;100699.63;5045891;28;20145;-73
2023/08/27 10:30:56;;;;;;;106.40;101.60;;;;;;;24.00;46.50;100706.44;5044910;28;20084;-73
2023/08/27 10:33:22;;;;;;;105.22;100.72;;;;;;;24.01;46.80;100702.53;5046875;28;20559;-71
2023/08/27 10:35:51;;;;;;;111.18;106.35;;;;;;;24.03;47.00;100712.06;5048442;28;20068;-72
2023/08/27 10:38:18;;;;;;;110.80;106.00;;;;;;;24.05;46.58;100720.84;5047329;28;20057;-73
2023/08/27 10:40:44;;;;;;;107.85;103.13;;;;;;;24.06;46.60;100716.94;5036621;28;20039;-73
2023/08/27 10:43:20;;;;;;;111.57;106.82;;;;;;;24.08;46.72;100731.19;5041991;28;20051;-71
2023/08/27 10:45:48;;;;;;;108.80;103.82;;;;;;;24.11;46.87;100762.84;5048334;28;20420;-73
2023/08/27 10:48:25;;;;;;;107.73;103.13;;;;;;;24.11;46.87;100760.06;5038647;28;20039;-71
2023/08/27 10:51:13;;;;;;;111.07;106.18;;;;;;;24.12;46.60;100770.00;5048086;28;20694;-70
2023/08/27 10:54:00;;;;;;;108.50;103.63;;;;;;;24.13;46.79;100775.16;5044044;28;20044;-74
2023/08/27 10:56:31;;;;;;;107.65;102.95;;;;;;;24.18;46.71;100772.19;5045799;28;20091;-73